sensor_id;sensor_type;location;lat;lon;timestamp;P1;durP1;ratioP1;P2;durP2;ratioP2
583;SDS011;27024;54.068;12.116;2024-03-23T00:53:59;20.63;;;3.65;;
583;SDS011;27024;54.068;12.116;2024-03-23T00:56:25;19.45;;;2.70;;
583;SDS011;27024;54.068;12.116;2024-03-23T00:58:51;22.17;;;3.53;;
583;SDS011;27024;54.068;12.116;2024-03-23T01:01:17;25.75;;;3.83;;
583;SDS011;27024;54.068;12.116;2024-03-23T01:03:43;22.10;;;3.90;;
583;SDS011;27024;54.068;12.116;2024-03-23T01:06:09;21.27;;;3.15;;
583;SDS011;27024;54.068;12.116;2024-03-23T01:08:35;19.70;;;3.58;;
583;SDS011;27024;54.068;12.116;2024-03-23T01:11:01;20.05;;;3.05;;
583;SDS011;27024;54.068;12.116;2024-03-23T01:13:28;19.85;;;3.53;;
583;SDS011;27024;54.068;12.116;2024-03-23T01:15:54;19.95;;;3.72;;
583;SDS011;27024;54.068;12.116;2024-03-23T01:18:22;19.90;;;3.55;;
583;SDS011;27024;54.068;12.116;2024-03-23T01:20:48;19.48;;;3.03;;
583;SDS011;27024;54.068;12.116;2024-03-23T01:23:15;18.67;;;3.58;;
583;SDS011;27024;54.068;12.116;2024-03-23T01:25:41;20.25;;;3.30;;
583;SDS011;27024;54.068;12.116;2024-03-23T01:28:07;20.42;;;3.38;;
583;SDS011;27024;54.068;12.116;2024-03-23T01:30:34;20.15;;;3.35;;
583;SDS011;27024;54.068;12.116;2024-03-23T01:33:01;30.15;;;4.20;;
583;SDS011;27024;54.068;12.116;2024-03-23T01:35:28;23.98;;;3.60;;
583;SDS011;27024;54.068;12.116;2024-03-23T01:37:54;15.52;;;3.03;;
583;SDS011;27024;54.068;12.116;2024-03-23T01:40:20;28.90;;;3.83;;
583;SDS011;27024;54.068;12.116;2024-03-23T01:42:56;24.10;;;3.22;;
583;SDS011;27024;54.068;12.116;2024-03-23T01:45:23;20.08;;;3.00;;
583;SDS011;27024;54.068;12.116;2024-03-23T01:47:50;23.75;;;3.00;;
583;SDS011;27024;54.068;12.116;2024-03-23T01:50:18;26.50;;;3.35;;
583;SDS011;27024;54.068;12.116;2024-03-23T01:52:46;19.27;;;3.13;;
583;SDS011;27024;54.068;12.116;2024-03-23T01:55:12;20.75;;;2.60;;
583;SDS011;27024;54.068;12.116;2024-03-23T01:57:38;19.85;;;3.65;;
583;SDS011;27024;54.068;12.116;2024-03-23T02:00:05;20.98;;;3.03;;
583;SDS011;27024;54.068;12.116;2024-03-23T02:02:32;25.42;;;3.33;;
583;SDS011;27024;54.068;12.116;2024-03-23T02:04:58;16.80;;;3.08;;
583;SDS011;27024;54.068;12.116;2024-03-23T02:07:24;16.88;;;2.80;;
583;SDS011;27024;54.068;12.116;2024-03-23T02:09:50;24.77;;;2.83;;
583;SDS011;27024;54.068;12.116;2024-03-23T02:12:17;20.58;;;2.80;;
583;SDS011;27024;54.068;12.116;2024-03-23T02:14:43;26.08;;;3.05;;
583;SDS011;27024;54.068;12.116;2024-03-23T02:17:09;21.25;;;3.42;;
583;SDS011;27024;54.068;12.116;2024-03-23T02:19:36;19.20;;;2.58;;
583;SDS011;27024;54.068;12.116;2024-03-23T02:22:02;22.23;;;2.97;;
583;SDS011;27024;54.068;12.116;2024-03-23T02:24:29;15.77;;;2.67;;
583;SDS011;27024;54.068;12.116;2024-03-23T02:26:55;16.65;;;2.47;;
583;SDS011;27024;54.068;12.116;2024-03-23T02:29:21;30.17;;;3.63;;
583;SDS011;27024;54.068;12.116;2024-03-23T02:31:47;21.10;;;2.88;;
583;SDS011;27024;54.068;12.116;2024-03-23T02:34:13;14.52;;;2.50;;
583;SDS011;27024;54.068;12.116;2024-03-23T02:36:40;21.55;;;2.80;;
583;SDS011;27024;54.068;12.116;2024-03-23T02:39:06;17.85;;;2.90;;
583;SDS011;27024;54.068;12.116;2024-03-23T02:41:34;14.23;;;2.53;;
583;SDS011;27024;54.068;12.116;2024-03-23T02:44:00;23.05;;;3.25;;
583;SDS011;27024;54.068;12.116;2024-03-23T02:46:26;17.92;;;2.33;;
583;SDS011;27024;54.068;12.116;2024-03-23T02:48:52;23.27;;;2.83;;
583;SDS011;27024;54.068;12.116;2024-03-23T02:51:18;20.77;;;2.88;;
583;SDS011;27024;54.068;12.116;2024-03-23T02:53:44;29.17;;;4.00;;
583;SDS011;27024;54.068;12.116;2024-03-23T02:56:12;17.92;;;3.35;;
583;SDS011;27024;54.068;12.116;2024-03-23T02:58:42;16.88;;;2.80;;
583;SDS011;27024;54.068;12.116;2024-03-23T03:01:08;21.00;;;2.63;;
583;SDS011;27024;54.068;12.116;2024-03-23T03:03:34;26.27;;;2.67;;
583;SDS011;27024;54.068;12.116;2024-03-23T03:06:00;23.20;;;3.20;;
583;SDS011;27024;54.068;12.116;2024-03-23T03:08:26;19.30;;;2.42;;
583;SDS011;27024;54.068;12.116;2024-03-23T03:10:52;20.83;;;2.53;;
583;SDS011;27024;54.068;12.116;2024-03-23T03:13:18;25.88;;;3.05;;
583;SDS011;27024;54.068;12.116;2024-03-23T03:15:44;20.33;;;2.65;;
583;SDS011;27024;54.068;12.116;2024-03-23T03:18:10;19.95;;;2.38;;
583;SDS011;27024;54.068;12.116;2024-03-23T03:20:39;23.08;;;2.35;;
583;SDS011;27024;54.068;12.116;2024-03-23T03:23:06;16.25;;;2.50;;
583;SDS011;27024;54.068;12.116;2024-03-23T03:25:32;21.58;;;2.88;;
583;SDS011;27024;54.068;12.116;2024-03-23T03:27:59;20.98;;;3.50;;
583;SDS011;27024;54.068;12.116;2024-03-23T03:30:26;21.30;;;3.15;;
583;SDS011;27024;54.068;12.116;2024-03-23T03:32:53;17.52;;;2.83;;
583;SDS011;27024;54.068;12.116;2024-03-23T03:35:19;18.67;;;2.42;;
583;SDS011;27024;54.068;12.116;2024-03-23T03:37:45;22.45;;;2.70;;
583;SDS011;27024;54.068;12.116;2024-03-23T03:40:12;26.33;;;3.35;;
583;SDS011;27024;54.068;12.116;2024-03-23T03:42:38;20.20;;;2.92;;
583;SDS011;27024;54.068;12.116;2024-03-23T03:45:04;24.08;;;2.70;;
583;SDS011;27024;54.068;12.116;2024-03-23T03:47:30;22.33;;;2.90;;
583;SDS011;27024;54.068;12.116;2024-03-23T03:49:56;25.45;;;2.70;;
583;SDS011;27024;54.068;12.116;2024-03-23T03:52:22;16.10;;;2.20;;
583;SDS011;27024;54.068;12.116;2024-03-23T03:54:48;18.15;;;2.30;;
583;SDS011;27024;54.068;12.116;2024-03-23T03:57:14;25.52;;;2.72;;
583;SDS011;27024;54.068;12.116;2024-03-23T03:59:40;22.90;;;2.55;;
583;SDS011;27024;54.068;12.116;2024-03-23T04:02:06;18.63;;;2.25;;
583;SDS011;27024;54.068;12.116;2024-03-23T04:04:32;18.35;;;2.88;;
583;SDS011;27024;54.068;12.116;2024-03-23T04:06:59;16.17;;;2.28;;
583;SDS011;27024;54.068;12.116;2024-03-23T04:09:25;18.65;;;3.05;;
583;SDS011;27024;54.068;12.116;2024-03-23T04:11:51;18.77;;;2.03;;
583;SDS011;27024;54.068;12.116;2024-03-23T04:14:17;19.45;;;2.60;;
583;SDS011;27024;54.068;12.116;2024-03-23T04:16:43;17.83;;;2.13;;
583;SDS011;27024;54.068;12.116;2024-03-23T04:19:09;21.60;;;2.30;;
583;SDS011;27024;54.068;12.116;2024-03-23T04:21:35;21.90;;;2.70;;
583;SDS011;27024;54.068;12.116;2024-03-23T04:24:03;20.45;;;2.22;;
583;SDS011;27024;54.068;12.116;2024-03-23T04:26:29;23.33;;;2.38;;
583;SDS011;27024;54.068;12.116;2024-03-23T04:28:55;19.65;;;2.38;;
583;SDS011;27024;54.068;12.116;2024-03-23T04:31:21;25.27;;;3.10;;
583;SDS011;27024;54.068;12.116;2024-03-23T04:33:47;15.55;;;1.80;;
583;SDS011;27024;54.068;12.116;2024-03-23T04:36:13;20.80;;;2.13;;
583;SDS011;27024;54.068;12.116;2024-03-23T04:38:39;16.77;;;2.40;;
583;SDS011;27024;54.068;12.116;2024-03-23T04:41:05;17.77;;;2.45;;
583;SDS011;27024;54.068;12.116;2024-03-23T04:43:31;17.50;;;2.00;;
583;SDS011;27024;54.068;12.116;2024-03-23T04:45:57;15.90;;;2.15;;
583;SDS011;27024;54.068;12.116;2024-03-23T04:48:23;19.85;;;2.40;;
583;SDS011;27024;54.068;12.116;2024-03-23T04:50:54;17.88;;;2.30;;
583;SDS011;27024;54.068;12.116;2024-03-23T04:53:23;18.20;;;2.10;;
583;SDS011;27024;54.068;12.116;2024-03-23T04:55:54;18.90;;;2.08;;
583;SDS011;27024;54.068;12.116;2024-03-23T04:58:24;20.02;;;2.20;;
583;SDS011;27024;54.068;12.116;2024-03-23T05:00:55;22.23;;;2.45;;
583;SDS011;27024;54.068;12.116;2024-03-23T05:03:21;16.88;;;2.28;;
583;SDS011;27024;54.068;12.116;2024-03-23T05:05:48;19.45;;;2.58;;
583;SDS011;27024;54.068;12.116;2024-03-23T05:08:15;18.38;;;2.67;;
583;SDS011;27024;54.068;12.116;2024-03-23T05:10:42;21.48;;;2.65;;
583;SDS011;27024;54.068;12.116;2024-03-23T05:13:08;17.25;;;2.40;;
583;SDS011;27024;54.068;12.116;2024-03-23T05:15:34;19.30;;;2.38;;
583;SDS011;27024;54.068;12.116;2024-03-23T05:18:00;21.80;;;3.05;;
583;SDS011;27024;54.068;12.116;2024-03-23T05:20:27;17.40;;;2.55;;
583;SDS011;27024;54.068;12.116;2024-03-23T05:22:54;18.17;;;2.40;;
583;SDS011;27024;54.068;12.116;2024-03-23T05:25:20;17.77;;;2.33;;
583;SDS011;27024;54.068;12.116;2024-03-23T05:27:46;15.10;;;2.67;;
583;SDS011;27024;54.068;12.116;2024-03-23T05:30:12;22.77;;;2.63;;
583;SDS011;27024;54.068;12.116;2024-03-23T05:32:38;23.05;;;2.50;;
583;SDS011;27024;54.068;12.116;2024-03-23T05:35:06;17.60;;;2.25;;
583;SDS011;27024;54.068;12.116;2024-03-23T05:37:33;23.13;;;2.47;;
583;SDS011;27024;54.068;12.116;2024-03-23T05:40:00;17.85;;;2.63;;
583;SDS011;27024;54.068;12.116;2024-03-23T05:42:26;18.13;;;2.00;;
583;SDS011;27024;54.068;12.116;2024-03-23T05:44:52;19.23;;;2.75;;
583;SDS011;27024;54.068;12.116;2024-03-23T05:47:18;23.63;;;2.53;;
583;SDS011;27024;54.068;12.116;2024-03-23T05:49:45;26.88;;;2.67;;
583;SDS011;27024;54.068;12.116;2024-03-23T05:52:12;20.05;;;2.15;;
583;SDS011;27024;54.068;12.116;2024-03-23T05:54:38;22.23;;;2.40;;
583;SDS011;27024;54.068;12.116;2024-03-23T05:57:05;24.23;;;2.70;;
583;SDS011;27024;54.068;12.116;2024-03-23T05:59:33;23.63;;;2.83;;
583;SDS011;27024;54.068;12.116;2024-03-23T06:01:59;17.90;;;2.30;;
583;SDS011;27024;54.068;12.116;2024-03-23T06:04:25;18.52;;;1.90;;
583;SDS011;27024;54.068;12.116;2024-03-23T06:06:51;17.60;;;2.10;;
583;SDS011;27024;54.068;12.116;2024-03-23T06:09:20;18.67;;;2.53;;
583;SDS011;27024;54.068;12.116;2024-03-23T06:11:46;25.58;;;3.55;;
583;SDS011;27024;54.068;12.116;2024-03-23T06:14:12;23.05;;;3.15;;
583;SDS011;27024;54.068;12.116;2024-03-23T06:16:38;13.45;;;2.25;;
583;SDS011;27024;54.068;12.116;2024-03-23T06:19:04;20.20;;;2.55;;
583;SDS011;27024;54.068;12.116;2024-03-23T06:21:32;23.13;;;2.42;;
583;SDS011;27024;54.068;12.116;2024-03-23T06:23:58;21.27;;;2.63;;
583;SDS011;27024;54.068;12.116;2024-03-23T06:26:25;18.10;;;2.45;;
583;SDS011;27024;54.068;12.116;2024-03-23T06:28:51;15.18;;;2.03;;
583;SDS011;27024;54.068;12.116;2024-03-23T06:31:17;21.98;;;2.80;;
583;SDS011;27024;54.068;12.116;2024-03-23T06:33:43;21.33;;;2.75;;
583;SDS011;27024;54.068;12.116;2024-03-23T06:36:10;21.35;;;2.50;;
583;SDS011;27024;54.068;12.116;2024-03-23T06:38:36;17.25;;;3.72;;
583;SDS011;27024;54.068;12.116;2024-03-23T06:41:04;20.80;;;3.28;;
583;SDS011;27024;54.068;12.116;2024-03-23T06:43:32;22.80;;;2.38;;
583;SDS011;27024;54.068;12.116;2024-03-23T06:45:58;21.50;;;2.53;;
583;SDS011;27024;54.068;12.116;2024-03-23T06:48:24;14.98;;;2.65;;
583;SDS011;27024;54.068;12.116;2024-03-23T06:50:55;16.90;;;2.22;;
583;SDS011;27024;54.068;12.116;2024-03-23T06:53:22;19.35;;;2.83;;
583;SDS011;27024;54.068;12.116;2024-03-23T06:55:52;18.60;;;2.65;;
583;SDS011;27024;54.068;12.116;2024-03-23T06:58:19;20.25;;;3.05;;
583;SDS011;27024;54.068;12.116;2024-03-23T07:00:46;22.23;;;2.58;;
583;SDS011;27024;54.068;12.116;2024-03-23T07:03:12;11.88;;;2.30;;
583;SDS011;27024;54.068;12.116;2024-03-23T07:05:38;22.52;;;2.95;;
583;SDS011;27024;54.068;12.116;2024-03-23T07:08:04;17.92;;;2.78;;
583;SDS011;27024;54.068;12.116;2024-03-23T07:10:31;18.58;;;3.03;;
583;SDS011;27024;54.068;12.116;2024-03-23T07:12:57;21.92;;;3.42;;
583;SDS011;27024;54.068;12.116;2024-03-23T07:15:23;16.88;;;2.90;;
583;SDS011;27024;54.068;12.116;2024-03-23T07:17:49;16.17;;;2.83;;
583;SDS011;27024;54.068;12.116;2024-03-23T07:20:15;24.60;;;3.20;;
583;SDS011;27024;54.068;12.116;2024-03-23T07:22:41;20.20;;;3.08;;
583;SDS011;27024;54.068;12.116;2024-03-23T07:25:07;23.48;;;4.13;;
583;SDS011;27024;54.068;12.116;2024-03-23T07:27:33;20.50;;;2.92;;
583;SDS011;27024;54.068;12.116;2024-03-23T07:29:59;19.63;;;2.95;;
583;SDS011;27024;54.068;12.116;2024-03-23T07:32:26;23.55;;;3.20;;
583;SDS011;27024;54.068;12.116;2024-03-23T07:34:52;25.73;;;4.07;;
583;SDS011;27024;54.068;12.116;2024-03-23T07:37:18;17.67;;;2.92;;
583;SDS011;27024;54.068;12.116;2024-03-23T07:39:44;18.98;;;3.28;;
583;SDS011;27024;54.068;12.116;2024-03-23T07:42:10;19.65;;;2.90;;
583;SDS011;27024;54.068;12.116;2024-03-23T07:44:36;26.02;;;3.45;;
583;SDS011;27024;54.068;12.116;2024-03-23T07:47:03;18.92;;;2.97;;
583;SDS011;27024;54.068;12.116;2024-03-23T07:49:29;17.75;;;3.35;;
583;SDS011;27024;54.068;12.116;2024-03-23T07:51:55;19.10;;;3.33;;
583;SDS011;27024;54.068;12.116;2024-03-23T07:54:21;19.60;;;3.72;;
583;SDS011;27024;54.068;12.116;2024-03-23T07:56:47;23.88;;;4.20;;
583;SDS011;27024;54.068;12.116;2024-03-23T07:59:13;21.00;;;2.85;;
583;SDS011;27024;54.068;12.116;2024-03-23T08:01:39;17.95;;;3.00;;
583;SDS011;27024;54.068;12.116;2024-03-23T08:04:05;23.25;;;3.30;;
583;SDS011;27024;54.068;12.116;2024-03-23T08:06:31;18.95;;;3.55;;
583;SDS011;27024;54.068;12.116;2024-03-23T08:08:57;13.57;;;2.58;;
583;SDS011;27024;54.068;12.116;2024-03-23T08:11:27;18.58;;;3.47;;
583;SDS011;27024;54.068;12.116;2024-03-23T08:13:57;19.38;;;3.83;;
583;SDS011;27024;54.068;12.116;2024-03-23T08:16:23;22.50;;;3.60;;
583;SDS011;27024;54.068;12.116;2024-03-23T08:18:53;20.48;;;3.50;;
583;SDS011;27024;54.068;12.116;2024-03-23T08:21:21;18.25;;;3.72;;
583;SDS011;27024;54.068;12.116;2024-03-23T08:23:47;20.60;;;3.35;;
583;SDS011;27024;54.068;12.116;2024-03-23T08:26:14;18.67;;;2.83;;
583;SDS011;27024;54.068;12.116;2024-03-23T08:28:41;17.10;;;2.88;;
583;SDS011;27024;54.068;12.116;2024-03-23T08:31:07;15.70;;;2.17;;
583;SDS011;27024;54.068;12.116;2024-03-23T08:33:34;19.17;;;3.13;;
583;SDS011;27024;54.068;12.116;2024-03-23T08:36:07;16.80;;;3.15;;
583;SDS011;27024;54.068;12.116;2024-03-23T08:38:34;15.88;;;2.97;;
583;SDS011;27024;54.068;12.116;2024-03-23T08:41:01;20.92;;;2.95;;
583;SDS011;27024;54.068;12.116;2024-03-23T08:43:36;11.32;;;2.90;;
583;SDS011;27024;54.068;12.116;2024-03-23T08:46:04;19.75;;;3.00;;
583;SDS011;27024;54.068;12.116;2024-03-23T08:48:37;17.10;;;2.58;;
583;SDS011;27024;54.068;12.116;2024-03-23T08:51:09;14.93;;;2.75;;
583;SDS011;27024;54.068;12.116;2024-03-23T08:53:36;14.77;;;2.70;;
583;SDS011;27024;54.068;12.116;2024-03-23T08:56:03;12.80;;;2.80;;
583;SDS011;27024;54.068;12.116;2024-03-23T08:58:30;20.27;;;2.83;;
583;SDS011;27024;54.068;12.116;2024-03-23T09:01:03;19.38;;;2.58;;
583;SDS011;27024;54.068;12.116;2024-03-23T09:03:34;17.17;;;2.60;;
583;SDS011;27024;54.068;12.116;2024-03-23T09:06:01;16.45;;;2.40;;
583;SDS011;27024;54.068;12.116;2024-03-23T09:08:31;14.05;;;2.55;;
583;SDS011;27024;54.068;12.116;2024-03-23T09:10:58;13.98;;;2.35;;
583;SDS011;27024;54.068;12.116;2024-03-23T09:13:32;18.00;;;2.05;;
583;SDS011;27024;54.068;12.116;2024-03-23T09:15:59;17.50;;;2.00;;
583;SDS011;27024;54.068;12.116;2024-03-23T09:18:26;15.63;;;2.30;;
583;SDS011;27024;54.068;12.116;2024-03-23T09:20:52;13.70;;;2.45;;
583;SDS011;27024;54.068;12.116;2024-03-23T09:23:23;16.60;;;2.38;;
583;SDS011;27024;54.068;12.116;2024-03-23T09:25:49;18.35;;;3.15;;
583;SDS011;27024;54.068;12.116;2024-03-23T09:28:15;17.20;;;2.10;;
583;SDS011;27024;54.068;12.116;2024-03-23T09:30:41;15.38;;;2.13;;
583;SDS011;27024;54.068;12.116;2024-03-23T09:33:10;12.30;;;2.00;;
583;SDS011;27024;54.068;12.116;2024-03-23T09:35:40;13.25;;;1.92;;
583;SDS011;27024;54.068;12.116;2024-03-23T09:38:08;11.93;;;2.13;;
583;SDS011;27024;54.068;12.116;2024-03-23T09:40:34;16.63;;;2.33;;
583;SDS011;27024;54.068;12.116;2024-03-23T09:43:06;12.05;;;2.35;;
583;SDS011;27024;54.068;12.116;2024-03-23T09:45:32;11.13;;;2.40;;
583;SDS011;27024;54.068;12.116;2024-03-23T09:48:02;14.05;;;2.78;;
583;SDS011;27024;54.068;12.116;2024-03-23T09:50:29;17.40;;;3.17;;
583;SDS011;27024;54.068;12.116;2024-03-23T09:52:56;15.43;;;2.65;;
583;SDS011;27024;54.068;12.116;2024-03-23T09:55:22;15.38;;;2.70;;
583;SDS011;27024;54.068;12.116;2024-03-23T09:57:47;14.35;;;2.53;;
583;SDS011;27024;54.068;12.116;2024-03-23T10:00:14;12.32;;;2.83;;
583;SDS011;27024;54.068;12.116;2024-03-23T10:02:40;15.30;;;1.90;;
583;SDS011;27024;54.068;12.116;2024-03-23T10:05:19;12.20;;;2.50;;
583;SDS011;27024;54.068;12.116;2024-03-23T10:07:47;12.93;;;3.03;;
583;SDS011;27024;54.068;12.116;2024-03-23T10:10:15;13.15;;;3.30;;
583;SDS011;27024;54.068;12.116;2024-03-23T10:12:48;10.32;;;2.20;;
583;SDS011;27024;54.068;12.116;2024-03-23T10:15:23;10.75;;;2.65;;
583;SDS011;27024;54.068;12.116;2024-03-23T10:17:50;15.18;;;2.70;;
583;SDS011;27024;54.068;12.116;2024-03-23T10:20:20;11.45;;;2.40;;
583;SDS011;27024;54.068;12.116;2024-03-23T10:25:15;12.02;;;2.50;;
583;SDS011;27024;54.068;12.116;2024-03-23T10:27:42;10.07;;;2.10;;
583;SDS011;27024;54.068;12.116;2024-03-23T10:32:35;13.35;;;2.80;;
583;SDS011;27024;54.068;12.116;2024-03-23T10:38:01;13.15;;;2.63;;
583;SDS011;27024;54.068;12.116;2024-03-23T10:40:30;12.40;;;2.22;;
583;SDS011;27024;54.068;12.116;2024-03-23T10:42:57;9.65;;;2.13;;
583;SDS011;27024;54.068;12.116;2024-03-23T10:45:24;11.13;;;1.73;;
583;SDS011;27024;54.068;12.116;2024-03-23T10:47:50;9.43;;;1.85;;
583;SDS011;27024;54.068;12.116;2024-03-23T10:50:17;10.90;;;2.08;;
583;SDS011;27024;54.068;12.116;2024-03-23T10:52:45;9.13;;;2.40;;
583;SDS011;27024;54.068;12.116;2024-03-23T10:55:13;10.65;;;1.40;;
583;SDS011;27024;54.068;12.116;2024-03-23T10:57:48;9.45;;;1.92;;
583;SDS011;27024;54.068;12.116;2024-03-23T11:00:19;10.90;;;1.42;;
583;SDS011;27024;54.068;12.116;2024-03-23T11:02:49;9.45;;;2.30;;
583;SDS011;27024;54.068;12.116;2024-03-23T11:05:28;8.07;;;1.85;;
583;SDS011;27024;54.068;12.116;2024-03-23T11:07:55;12.90;;;2.20;;
583;SDS011;27024;54.068;12.116;2024-03-23T11:10:30;6.85;;;1.40;;
583;SDS011;27024;54.068;12.116;2024-03-23T11:12:59;9.98;;;2.03;;
583;SDS011;27024;54.068;12.116;2024-03-23T11:15:47;7.45;;;1.70;;
583;SDS011;27024;54.068;12.116;2024-03-23T11:18:20;10.57;;;2.25;;
583;SDS011;27024;54.068;12.116;2024-03-23T11:20:47;11.38;;;2.45;;
583;SDS011;27024;54.068;12.116;2024-03-23T11:23:32;10.73;;;2.33;;
583;SDS011;27024;54.068;12.116;2024-03-23T11:25:58;7.60;;;2.13;;
583;SDS011;27024;54.068;12.116;2024-03-23T11:28:32;9.90;;;1.77;;
583;SDS011;27024;54.068;12.116;2024-03-23T11:30:58;6.35;;;1.88;;
583;SDS011;27024;54.068;12.116;2024-03-23T11:33:41;6.53;;;2.10;;
583;SDS011;27024;54.068;12.116;2024-03-23T11:36:07;7.90;;;1.90;;
583;SDS011;27024;54.068;12.116;2024-03-23T11:38:43;6.15;;;1.83;;
583;SDS011;27024;54.068;12.116;2024-03-23T11:41:17;6.43;;;1.75;;
583;SDS011;27024;54.068;12.116;2024-03-23T11:43:47;7.45;;;1.67;;
583;SDS011;27024;54.068;12.116;2024-03-23T11:46:21;7.55;;;1.73;;
583;SDS011;27024;54.068;12.116;2024-03-23T11:48:51;9.90;;;1.63;;
583;SDS011;27024;54.068;12.116;2024-03-23T11:51:17;6.45;;;1.63;;
583;SDS011;27024;54.068;12.116;2024-03-23T11:53:43;7.93;;;1.92;;
583;SDS011;27024;54.068;12.116;2024-03-23T11:56:09;7.60;;;1.70;;
583;SDS011;27024;54.068;12.116;2024-03-23T11:58:35;5.57;;;1.80;;
583;SDS011;27024;54.068;12.116;2024-03-23T12:01:02;3.55;;;1.23;;
583;SDS011;27024;54.068;12.116;2024-03-23T12:03:30;3.35;;;1.27;;
583;SDS011;27024;54.068;12.116;2024-03-23T12:05:59;3.90;;;0.75;;
583;SDS011;27024;54.068;12.116;2024-03-23T12:13:30;5.95;;;0.93;;
583;SDS011;27024;54.068;12.116;2024-03-23T12:16:08;3.60;;;0.95;;
583;SDS011;27024;54.068;12.116;2024-03-23T12:18:36;2.42;;;0.30;;
583;SDS011;27024;54.068;12.116;2024-03-23T12:21:06;2.92;;;0.70;;
583;SDS011;27024;54.068;12.116;2024-03-23T12:23:32;2.67;;;0.65;;
583;SDS011;27024;54.068;12.116;2024-03-23T12:26:00;2.97;;;0.82;;
583;SDS011;27024;54.068;12.116;2024-03-23T12:28:27;3.30;;;0.63;;
583;SDS011;27024;54.068;12.116;2024-03-23T12:30:56;6.43;;;0.82;;
583;SDS011;27024;54.068;12.116;2024-03-23T12:33:22;3.92;;;0.73;;
583;SDS011;27024;54.068;12.116;2024-03-23T12:35:48;3.00;;;0.75;;
583;SDS011;27024;54.068;12.116;2024-03-23T12:38:19;4.32;;;0.93;;
583;SDS011;27024;54.068;12.116;2024-03-23T12:40:49;4.85;;;0.57;;
583;SDS011;27024;54.068;12.116;2024-03-23T12:43:16;4.40;;;0.75;;
583;SDS011;27024;54.068;12.116;2024-03-23T12:45:46;3.85;;;0.65;;
583;SDS011;27024;54.068;12.116;2024-03-23T12:48:12;6.95;;;1.20;;
583;SDS011;27024;54.068;12.116;2024-03-23T12:50:38;3.30;;;0.50;;
583;SDS011;27024;54.068;12.116;2024-03-23T12:53:04;6.90;;;2.00;;
583;SDS011;27024;54.068;12.116;2024-03-23T12:55:30;3.17;;;0.88;;
583;SDS011;27024;54.068;12.116;2024-03-23T12:57:56;3.33;;;0.47;;
583;SDS011;27024;54.068;12.116;2024-03-23T13:00:22;4.00;;;0.70;;
583;SDS011;27024;54.068;12.116;2024-03-23T13:02:48;4.85;;;0.77;;
583;SDS011;27024;54.068;12.116;2024-03-23T13:05:14;2.78;;;1.05;;
583;SDS011;27024;54.068;12.116;2024-03-23T13:07:40;3.42;;;0.68;;
583;SDS011;27024;54.068;12.116;2024-03-23T13:10:07;2.85;;;0.80;;
583;SDS011;27024;54.068;12.116;2024-03-23T13:12:34;5.45;;;1.05;;
583;SDS011;27024;54.068;12.116;2024-03-23T13:15:00;3.70;;;0.98;;
583;SDS011;27024;54.068;12.116;2024-03-23T13:17:27;3.55;;;1.33;;
583;SDS011;27024;54.068;12.116;2024-03-23T13:19:53;4.57;;;0.93;;
583;SDS011;27024;54.068;12.116;2024-03-23T13:22:21;3.90;;;1.05;;
583;SDS011;27024;54.068;12.116;2024-03-23T13:24:47;4.13;;;1.08;;
583;SDS011;27024;54.068;12.116;2024-03-23T13:27:13;3.35;;;0.57;;
583;SDS011;27024;54.068;12.116;2024-03-23T13:29:39;4.70;;;0.85;;
583;SDS011;27024;54.068;12.116;2024-03-23T13:32:05;4.20;;;0.73;;
583;SDS011;27024;54.068;12.116;2024-03-23T13:34:32;5.82;;;1.05;;
583;SDS011;27024;54.068;12.116;2024-03-23T13:37:00;4.47;;;0.82;;
583;SDS011;27024;54.068;12.116;2024-03-23T13:39:27;3.78;;;0.73;;
583;SDS011;27024;54.068;12.116;2024-03-23T13:41:53;2.72;;;0.70;;
583;SDS011;27024;54.068;12.116;2024-03-23T13:44:20;4.85;;;0.75;;
583;SDS011;27024;54.068;12.116;2024-03-23T13:46:46;3.75;;;0.63;;
583;SDS011;27024;54.068;12.116;2024-03-23T13:49:18;4.40;;;0.50;;
583;SDS011;27024;54.068;12.116;2024-03-23T13:51:56;3.78;;;0.90;;
583;SDS011;27024;54.068;12.116;2024-03-23T13:54:27;3.53;;;0.60;;
583;SDS011;27024;54.068;12.116;2024-03-23T13:56:54;3.63;;;0.63;;
583;SDS011;27024;54.068;12.116;2024-03-23T13:59:21;6.32;;;0.73;;
583;SDS011;27024;54.068;12.116;2024-03-23T14:01:48;4.15;;;1.00;;
583;SDS011;27024;54.068;12.116;2024-03-23T14:04:15;4.45;;;0.75;;
583;SDS011;27024;54.068;12.116;2024-03-23T14:06:48;2.70;;;0.60;;
583;SDS011;27024;54.068;12.116;2024-03-23T14:09:14;2.88;;;0.60;;
583;SDS011;27024;54.068;12.116;2024-03-23T14:11:46;3.40;;;0.93;;
583;SDS011;27024;54.068;12.116;2024-03-23T14:14:13;3.08;;;0.50;;
583;SDS011;27024;54.068;12.116;2024-03-23T14:16:38;2.63;;;1.00;;
583;SDS011;27024;54.068;12.116;2024-03-23T14:19:04;4.00;;;0.70;;
583;SDS011;27024;54.068;12.116;2024-03-23T14:21:31;5.05;;;0.77;;
583;SDS011;27024;54.068;12.116;2024-03-23T14:23:57;6.38;;;0.98;;
583;SDS011;27024;54.068;12.116;2024-03-23T14:26:24;4.65;;;0.60;;
583;SDS011;27024;54.068;12.116;2024-03-23T14:28:50;4.28;;;0.60;;
583;SDS011;27024;54.068;12.116;2024-03-23T14:31:16;3.22;;;1.10;;
583;SDS011;27024;54.068;12.116;2024-03-23T14:33:42;3.67;;;0.88;;
583;SDS011;27024;54.068;12.116;2024-03-23T14:36:13;3.55;;;1.67;;
583;SDS011;27024;54.068;12.116;2024-03-23T14:38:39;4.28;;;1.48;;
583;SDS011;27024;54.068;12.116;2024-03-23T14:41:05;4.93;;;1.02;;
583;SDS011;27024;54.068;12.116;2024-03-23T14:43:32;3.28;;;0.90;;
583;SDS011;27024;54.068;12.116;2024-03-23T14:46:07;4.28;;;0.90;;
583;SDS011;27024;54.068;12.116;2024-03-23T14:48:34;5.00;;;1.00;;
583;SDS011;27024;54.068;12.116;2024-03-23T14:51:01;6.97;;;1.25;;
583;SDS011;27024;54.068;12.116;2024-03-23T14:53:31;8.02;;;0.70;;
583;SDS011;27024;54.068;12.116;2024-03-23T14:56:01;6.32;;;1.20;;
583;SDS011;27024;54.068;12.116;2024-03-23T14:58:28;7.05;;;0.98;;
583;SDS011;27024;54.068;12.116;2024-03-23T15:01:04;5.72;;;0.90;;
583;SDS011;27024;54.068;12.116;2024-03-23T15:03:37;5.25;;;0.70;;
583;SDS011;27024;54.068;12.116;2024-03-23T15:06:08;6.25;;;0.60;;
583;SDS011;27024;54.068;12.116;2024-03-23T15:08:35;5.60;;;0.43;;
583;SDS011;27024;54.068;12.116;2024-03-23T15:11:02;5.32;;;0.52;;
583;SDS011;27024;54.068;12.116;2024-03-23T15:13:31;3.72;;;0.68;;
583;SDS011;27024;54.068;12.116;2024-03-23T15:15:58;6.07;;;0.80;;
583;SDS011;27024;54.068;12.116;2024-03-23T15:18:24;5.15;;;0.65;;
583;SDS011;27024;54.068;12.116;2024-03-23T15:20:55;4.78;;;0.68;;
583;SDS011;27024;54.068;12.116;2024-03-23T15:23:22;5.55;;;0.60;;
583;SDS011;27024;54.068;12.116;2024-03-23T15:25:55;3.40;;;0.40;;
583;SDS011;27024;54.068;12.116;2024-03-23T15:28:25;4.35;;;0.50;;
583;SDS011;27024;54.068;12.116;2024-03-23T15:30:58;2.88;;;0.50;;
583;SDS011;27024;54.068;12.116;2024-03-23T15:33:24;4.07;;;0.20;;
583;SDS011;27024;54.068;12.116;2024-03-23T15:35:50;4.05;;;0.35;;
583;SDS011;27024;54.068;12.116;2024-03-23T15:38:16;3.47;;;0.45;;
583;SDS011;27024;54.068;12.116;2024-03-23T15:40:50;5.43;;;0.85;;
583;SDS011;27024;54.068;12.116;2024-03-23T15:43:17;3.83;;;0.50;;
583;SDS011;27024;54.068;12.116;2024-03-23T15:45:43;2.75;;;0.40;;
583;SDS011;27024;54.068;12.116;2024-03-23T15:48:09;2.85;;;0.60;;
583;SDS011;27024;54.068;12.116;2024-03-23T15:50:36;4.10;;;0.68;;
583;SDS011;27024;54.068;12.116;2024-03-23T15:53:02;3.40;;;1.05;;
583;SDS011;27024;54.068;12.116;2024-03-23T15:55:32;3.40;;;0.55;;
583;SDS011;27024;54.068;12.116;2024-03-23T15:58:21;4.57;;;0.80;;
583;SDS011;27024;54.068;12.116;2024-03-23T16:00:55;2.28;;;0.38;;